Time;durP1;ratioP1;P1;durP2;ratioP2;P2;SDS_P1;SDS_P2;PMS_P1;PMS_P2;Temp;Humidity;BMP_temperature;BMP_pressure;BME280_temperature;BME280_humidity;BME280_pressure;Samples;Min_cycle;Max_cycle;Signal;HPM_P1;HPM_P2
2023/05/13 00:01:01;;;;;;;11.37;9.17;;;;;;;;;;5054242;28;20743;-78
2023/05/13 00:03:28;;;;;;;10.87;9.10;;;;;;;;;;5054659;28;20316;-78
2023/05/13 00:05:55;;;;;;;14.13;9.50;;;;;;;;;;5054461;28;20235;-77
2023/05/13 00:08:22;;;;;;;12.70;10.00;;;;;;;;;;5054318;28;20304;-78
2023/05/13 00:10:50;;;;;;;14.03;10.03;;;;;;;;;;5055179;28;20294;-78
2023/05/13 00:13:17;;;;;;;13.80;10.43;;;;;;;;;;5054392;28;20303;-77
2023/05/13 00:15:44;;;;;;;17.53;10.57;;;;;;;;;;5014055;28;20325;-76
2023/05/13 00:18:13;;;;;;;13.03;11.00;;;;;;;;;;5014518;28;20701;-79
2023/05/13 00:20:40;;;;;;;15.03;10.90;;;;;;;;;;5014584;28;20200;-78
2023/05/13 00:23:07;;;;;;;16.80;11.03;;;;;;;;;;5014775;28;20197;-79
2023/05/13 00:25:34;;;;;;;15.07;10.83;;;;;;;;;;5015168;28;20200;-78
2023/05/13 00:28:02;;;;;;;17.67;11.93;;;;;;;;;;5014642;28;20228;-77
2023/05/13 00:30:29;;;;;;;16.50;11.67;;;;;;;;;;5014237;28;20299;-78
2023/05/13 00:32:56;;;;;;;18.03;12.17;;;;;;;;;;5014622;28;20285;-78
2023/05/13 00:35:25;;;;;;;16.53;11.93;;;;;;;;;;5014413;28;20224;-77
2023/05/13 00:37:52;;;;;;;16.30;12.47;;;;;;;;;;5014001;28;20236;-79
2023/05/13 00:40:20;;;;;;;21.77;13.23;;;;;;;;;;5014194;28;20291;-78
2023/05/13 00:42:48;;;;;;;20.87;12.53;;;;;;;;;;5014165;28;20291;-78
2023/05/13 00:45:15;;;;;;;17.63;12.53;;;;;;;;;;5013426;28;20237;-78
2023/05/13 00:47:43;;;;;;;19.10;12.33;;;;;;;;;;5014904;28;20226;-77
2023/05/13 00:50:12;;;;;;;20.07;12.50;;;;;;;;;;5014081;28;20252;-78
2023/05/13 00:52:41;;;;;;;17.73;12.70;;;;;;;;;;5014061;28;20296;-79
2023/05/13 00:55:09;;;;;;;20.37;11.83;;;;;;;;;;5014222;28;20228;-77
2023/05/13 00:57:39;;;;;;;17.40;12.57;;;;;;;;;;5013726;28;20616;-77
2023/05/13 01:00:07;;;;;;;17.43;12.27;;;;;;;;;;5013857;28;20561;-77
2023/05/13 01:02:38;;;;;;;17.53;13.10;;;;;;;;;;5013778;28;20228;-77
2023/05/13 01:05:10;;;;;;;19.40;13.27;;;;;;;;;;5014281;28;20247;-78
2023/05/13 01:07:42;;;;;;;18.90;13.37;;;;;;;;;;5013615;28;20198;-78
2023/05/13 01:10:14;;;;;;;20.17;13.90;;;;;;;;;;5013846;28;20201;-78
2023/05/13 01:12:42;;;;;;;20.47;14.47;;;;;;;;;;5013329;28;20295;-77
2023/05/13 01:15:10;;;;;;;25.43;14.53;;;;;;;;;;5044307;28;20255;-77
2023/05/13 01:17:40;;;;;;;22.13;14.50;;;;;;;;;;5053791;28;20708;-77
2023/05/13 01:20:08;;;;;;;20.70;14.90;;;;;;;;;;5052827;28;20270;-78
2023/05/13 01:22:37;;;;;;;24.53;15.97;;;;;;;;;;5053171;28;20250;-77
2023/05/13 01:25:05;;;;;;;24.23;15.13;;;;;;;;;;5053575;28;20254;-77
2023/05/13 01:27:32;;;;;;;22.70;15.20;;;;;;;;;;5052834;28;20283;-78
2023/05/13 01:29:59;;;;;;;27.03;16.33;;;;;;;;;;5052942;28;20239;-78
2023/05/13 01:32:26;;;;;;;26.43;16.30;;;;;;;;;;5053457;28;20822;-77
2023/05/13 01:34:54;;;;;;;26.83;17.83;;;;;;;;;;5052870;28;20656;-78
2023/05/13 01:37:21;;;;;;;28.17;17.70;;;;;;;;;;5052995;28;20238;-78
2023/05/13 01:39:50;;;;;;;29.60;18.53;;;;;;;;;;5052855;28;20199;-77
2023/05/13 01:42:18;;;;;;;28.70;18.50;;;;;;;;;;5052146;28;20289;-78
2023/05/13 01:44:45;;;;;;;28.10;18.70;;;;;;;;;;5053300;28;20645;-78
2023/05/13 01:47:12;;;;;;;28.40;19.13;;;;;;;;;;5052616;28;20211;-78
2023/05/13 01:49:39;;;;;;;31.10;18.73;;;;;;;;;;5052642;28;20223;-77
2023/05/13 01:52:07;;;;;;;31.60;19.53;;;;;;;;;;5052659;28;20283;-78
2023/05/13 01:54:34;;;;;;;32.80;19.60;;;;;;;;;;5051739;28;20214;-77
2023/05/13 01:57:03;;;;;;;30.20;19.77;;;;;;;;;;5052137;28;20254;-78
2023/05/13 01:59:30;;;;;;;35.50;20.40;;;;;;;;;;5052049;28;20200;-77
2023/05/13 02:01:57;;;;;;;38.30;20.13;;;;;;;;;;5052558;28;20215;-78
2023/05/13 02:04:24;;;;;;;35.63;19.63;;;;;;;;;;5052876;28;20195;-78
2023/05/13 02:06:52;;;;;;;33.43;21.13;;;;;;;;;;5052295;28;20214;-78
2023/05/13 02:09:19;;;;;;;36.33;21.67;;;;;;;;;;5052406;28;20276;-77
2023/05/13 02:11:46;;;;;;;37.47;21.80;;;;;;;;;;5051829;28;20566;-77
2023/05/13 02:14:15;;;;;;;35.67;21.63;;;;;;;;;;5052305;28;20291;-77
2023/05/13 02:16:42;;;;;;;35.30;21.00;;;;;;;;;;5042933;28;20233;-77
2023/05/13 02:19:09;;;;;;;37.90;22.00;;;;;;;;;;5023100;28;20227;-78
2023/05/13 02:21:36;;;;;;;40.33;22.53;;;;;;;;;;5032863;28;20283;-77
2023/05/13 02:24:04;;;;;;;38.60;21.93;;;;;;;;;;5032064;28;20200;-77
2023/05/13 02:26:31;;;;;;;38.40;22.10;;;;;;;;;;5031768;28;20238;-77
2023/05/13 02:28:58;;;;;;;41.83;22.30;;;;;;;;;;5032039;28;20201;-77
2023/05/13 02:31:27;;;;;;;42.47;23.80;;;;;;;;;;5031961;28;20668;-76
2023/05/13 02:33:54;;;;;;;36.70;22.80;;;;;;;;;;5031989;28;20304;-76
2023/05/13 02:36:21;;;;;;;39.13;23.17;;;;;;;;;;5031677;28;20235;-78
2023/05/13 02:38:48;;;;;;;42.03;23.33;;;;;;;;;;5031478;28;20717;-77
2023/05/13 02:41:15;;;;;;;39.50;23.80;;;;;;;;;;5031451;28;20870;-77
2023/05/13 02:43:43;;;;;;;39.17;23.73;;;;;;;;;;5032344;28;20201;-78
2023/05/13 02:46:10;;;;;;;40.67;23.60;;;;;;;;;;5031508;28;20236;-78
2023/05/13 02:48:39;;;;;;;40.70;23.70;;;;;;;;;;5031452;28;20266;-77
2023/05/13 02:51:06;;;;;;;38.63;22.37;;;;;;;;;;5031763;28;20278;-78
2023/05/13 02:53:33;;;;;;;40.30;24.57;;;;;;;;;;5031507;28;20250;-77
2023/05/13 02:56:00;;;;;;;43.47;24.60;;;;;;;;;;5030887;28;20315;-77
2023/05/13 02:58:27;;;;;;;38.70;22.90;;;;;;;;;;5032088;28;20291;-77
2023/05/13 03:00:54;;;;;;;37.87;22.37;;;;;;;;;;5031122;28;20232;-77
2023/05/13 03:03:22;;;;;;;41.20;23.73;;;;;;;;;;5031283;28;20287;-77
2023/05/13 03:05:50;;;;;;;43.57;24.27;;;;;;;;;;5030773;28;20295;-77
2023/05/13 03:08:17;;;;;;;43.40;25.03;;;;;;;;;;5030696;28;20631;-78
2023/05/13 03:10:44;;;;;;;40.47;24.47;;;;;;;;;;5031704;28;20776;-78
2023/05/13 03:13:12;;;;;;;41.37;23.77;;;;;;;;;;5031343;28;20732;-77
2023/05/13 03:15:39;;;;;;;39.30;24.67;;;;;;;;;;5050645;28;20220;-77
2023/05/13 03:18:06;;;;;;;39.37;22.90;;;;;;;;;;5051162;28;20223;-79
2023/05/13 03:20:33;;;;;;;39.63;23.87;;;;;;;;;;5050844;28;20664;-78
2023/05/13 03:23:02;;;;;;;45.50;24.80;;;;;;;;;;5050827;28;20215;-79
2023/05/13 03:25:30;;;;;;;40.90;23.07;;;;;;;;;;5051313;28;20199;-78
2023/05/13 03:27:57;;;;;;;39.80;22.60;;;;;;;;;;5051344;28;20200;-78
2023/05/13 03:30:24;;;;;;;39.53;23.23;;;;;;;;;;5050753;28;20624;-78
2023/05/13 03:32:51;;;;;;;37.33;22.50;;;;;;;;;;5051271;28;20200;-78
2023/05/13 03:35:19;;;;;;;37.33;23.93;;;;;;;;;;5050877;28;20196;-78
2023/05/13 03:37:46;;;;;;;37.37;21.77;;;;;;;;;;5050848;28;20258;-78
2023/05/13 03:40:15;;;;;;;37.20;22.70;;;;;;;;;;5050899;28;20291;-78
2023/05/13 03:42:42;;;;;;;39.07;21.80;;;;;;;;;;5050324;28;20733;-78
2023/05/13 03:45:10;;;;;;;35.93;20.87;;;;;;;;;;5051775;28;20334;-79
2023/05/13 03:47:38;;;;;;;36.10;20.90;;;;;;;;;;5050615;28;20200;-78
2023/05/13 03:50:05;;;;;;;35.63;21.03;;;;;;;;;;5050682;28;20259;-78
2023/05/13 03:52:33;;;;;;;35.37;20.90;;;;;;;;;;5050494;28;20245;-78
2023/05/13 03:55:00;;;;;;;37.93;21.10;;;;;;;;;;5050982;28;20282;-78
2023/05/13 03:57:28;;;;;;;33.63;20.73;;;;;;;;;;5050816;28;20318;-79
2023/05/13 03:59:55;;;;;;;36.83;20.73;;;;;;;;;;5050885;28;20203;-78
2023/05/13 04:02:22;;;;;;;37.70;20.93;;;;;;;;;;5051327;28;20294;-78
2023/05/13 04:04:50;;;;;;;33.97;20.20;;;;;;;;;;5050643;28;20246;-77
2023/05/13 04:07:17;;;;;;;39.10;20.17;;;;;;;;;;5050264;28;20282;-78
2023/05/13 04:09:44;;;;;;;35.43;21.27;;;;;;;;;;5051013;28;20224;-79
2023/05/13 04:12:11;;;;;;;34.67;21.30;;;;;;;;;;5050750;28;20231;-77
2023/05/13 04:14:40;;;;;;;34.60;20.90;;;;;;;;;;5050491;28;20296;-78
2023/05/13 04:17:07;;;;;;;34.40;20.77;;;;;;;;;;5051370;28;20285;-77
2023/05/13 04:19:34;;;;;;;34.37;20.70;;;;;;;;;;5054031;28;20294;-78
2023/05/13 04:22:01;;;;;;;35.27;20.60;;;;;;;;;;5054211;28;20283;-78
2023/05/13 04:24:28;;;;;;;36.30;21.80;;;;;;;;;;5048446;28;20279;-77
2023/05/13 04:26:56;;;;;;;37.63;22.07;;;;;;;;;;5034503;28;20296;-77
2023/05/13 04:29:23;;;;;;;39.63;23.13;;;;;;;;;;5034603;28;20200;-78
2023/05/13 04:31:51;;;;;;;35.53;20.77;;;;;;;;;;5034240;28;20200;-77
2023/05/13 04:34:18;;;;;;;38.40;22.03;;;;;;;;;;5034291;28;20287;-77
2023/05/13 04:36:47;;;;;;;40.10;23.10;;;;;;;;;;5033783;28;20227;-79
2023/05/13 04:39:14;;;;;;;41.27;23.37;;;;;;;;;;5034253;28;20649;-78
2023/05/13 04:41:42;;;;;;;38.20;22.00;;;;;;;;;;5034218;28;20259;-77
2023/05/13 04:44:09;;;;;;;38.23;23.00;;;;;;;;;;5034111;28;20216;-77
2023/05/13 04:46:39;;;;;;;37.60;23.20;;;;;;;;;;5034121;28;20224;-78
2023/05/13 04:49:07;;;;;;;36.63;22.60;;;;;;;;;;5033716;28;20233;-78
2023/05/13 04:51:34;;;;;;;36.20;22.70;;;;;;;;;;5033566;28;20196;-78
2023/05/13 04:54:02;;;;;;;40.77;23.10;;;;;;;;;;5033949;28;20220;-78
2023/05/13 04:56:29;;;;;;;40.47;23.53;;;;;;;;;;5033744;28;20319;-78
2023/05/13 04:58:56;;;;;;;39.67;23.57;;;;;;;;;;5033623;28;20201;-77
2023/05/13 05:01:23;;;;;;;41.93;23.80;;;;;;;;;;5034049;28;20286;-78
2023/05/13 05:03:50;;;;;;;37.97;24.00;;;;;;;;;;5033671;28;20235;-78
2023/05/13 05:06:20;;;;;;;36.37;24.57;;;;;;;;;;5033702;28;20203;-78
2023/05/13 05:08:47;;;;;;;39.97;24.43;;;;;;;;;;5033279;28;20189;-79
2023/05/13 05:11:15;;;;;;;36.27;22.47;;;;;;;;;;5033859;28;20374;-78
2023/05/13 05:13:42;;;;;;;38.87;23.60;;;;;;;;;;5037016;28;20238;-77
2023/05/13 05:16:09;;;;;;;40.73;24.30;;;;;;;;;;5053693;28;20192;-77
2023/05/13 05:18:36;;;;;;;41.43;24.83;;;;;;;;;;5053217;28;20211;-78
2023/05/13 05:21:03;;;;;;;42.73;24.83;;;;;;;;;;5053320;28;20227;-77
2023/05/13 05:23:32;;;;;;;43.47;25.33;;;;;;;;;;5053071;28;20195;-79
2023/05/13 05:25:59;;;;;;;45.10;25.33;;;;;;;;;;5052727;28;20227;-78
2023/05/13 05:28:26;;;;;;;42.80;25.80;;;;;;;;;;5053231;28;20200;-79
2023/05/13 05:30:54;;;;;;;43.60;24.83;;;;;;;;;;5052520;28;20645;-77
2023/05/13 05:33:21;;;;;;;41.80;24.77;;;;;;;;;;5053003;28;20226;-77
2023/05/13 05:35:48;;;;;;;39.80;25.40;;;;;;;;;;5053091;28;20230;-78
2023/05/13 05:38:15;;;;;;;40.97;26.03;;;;;;;;;;5052854;28;20233;-79
2023/05/13 05:40:45;;;;;;;44.30;25.73;;;;;;;;;;5052576;28;20599;-77
2023/05/13 05:43:12;;;;;;;42.50;26.27;;;;;;;;;;5052931;28;20282;-78
2023/05/13 05:45:39;;;;;;;42.87;25.80;;;;;;;;;;5053184;28;20603;-78
2023/05/13 05:48:07;;;;;;;41.97;25.40;;;;;;;;;;5052318;28;20265;-78
2023/05/13 05:50:35;;;;;;;42.83;26.50;;;;;;;;;;5052187;28;20255;-78
2023/05/13 05:53:02;;;;;;;45.00;26.07;;;;;;;;;;5052903;28;20191;-78
2023/05/13 05:55:30;;;;;;;41.30;25.57;;;;;;;;;;5052449;28;20330;-78
2023/05/13 05:58:02;;;;;;;40.73;25.83;;;;;;;;;;5052457;28;20227;-78
2023/05/13 06:00:29;;;;;;;41.97;26.07;;;;;;;;;;5052470;28;20314;-78
2023/05/13 06:02:57;;;;;;;39.97;25.97;;;;;;;;;;5052072;28;20199;-78
2023/05/13 06:05:24;;;;;;;37.57;24.70;;;;;;;;;;5052554;28;20287;-77
2023/05/13 06:07:52;;;;;;;43.60;26.20;;;;;;;;;;5052159;28;20200;-77
2023/05/13 06:10:19;;;;;;;44.70;25.90;;;;;;;;;;5052212;28;20241;-78
2023/05/13 06:12:46;;;;;;;43.17;25.73;;;;;;;;;;5052392;28;20645;-76
2023/05/13 06:15:15;;;;;;;39.17;25.70;;;;;;;;;;5052239;28;20235;-79
2023/05/13 06:17:42;;;;;;;41.40;24.63;;;;;;;;;;5051901;28;20277;-78
2023/05/13 06:20:10;;;;;;;43.43;25.70;;;;;;;;;;5051772;28;20200;-78
2023/05/13 06:22:37;;;;;;;38.87;25.07;;;;;;;;;;5051829;28;20195;-77
2023/05/13 06:25:04;;;;;;;40.37;25.50;;;;;;;;;;5052488;28;20192;-77
2023/05/13 06:27:32;;;;;;;38.10;24.43;;;;;;;;;;5052127;28;20238;-78
2023/05/13 06:29:59;;;;;;;38.57;24.03;;;;;;;;;;5040899;28;20196;-77
2023/05/13 06:32:28;;;;;;;37.33;23.27;;;;;;;;;;5031776;28;20221;-79
2023/05/13 06:34:55;;;;;;;39.67;23.37;;;;;;;;;;5031970;28;20216;-78
2023/05/13 06:37:22;;;;;;;35.40;22.67;;;;;;;;;;5031799;28;20315;-78
2023/05/13 06:39:50;;;;;;;36.57;22.87;;;;;;;;;;5032139;28;20283;-78
2023/05/13 06:42:17;;;;;;;38.97;23.60;;;;;;;;;;5031674;28;20661;-78
2023/05/13 06:44:44;;;;;;;36.90;23.27;;;;;;;;;;5031598;28;20196;-79
2023/05/13 06:47:14;;;;;;;37.20;22.33;;;;;;;;;;5031538;28;20196;-78
2023/05/13 06:49:43;;;;;;;33.20;22.53;;;;;;;;;;5031564;28;20721;-78
2023/05/13 06:52:10;;;;;;;33.93;20.97;;;;;;;;;;5031886;28;20296;-78
2023/05/13 06:54:38;;;;;;;30.33;19.87;;;;;;;;;;5031784;28;20288;-77
2023/05/13 06:57:06;;;;;;;27.27;18.70;;;;;;;;;;5031395;28;20224;-78
2023/05/13 06:59:33;;;;;;;25.00;17.63;;;;;;;;;;5031515;28;20251;-76
2023/05/13 07:02:00;;;;;;;24.67;17.30;;;;;;;;;;5031216;28;20364;-78
2023/05/13 07:04:29;;;;;;;27.30;18.27;;;;;;;;;;5030673;28;20669;-78
2023/05/13 07:06:57;;;;;;;24.17;17.33;;;;;;;;;;5030951;28;20620;-79
2023/05/13 07:09:24;;;;;;;28.50;18.90;;;;;;;;;;5031228;28;20232;-81
2023/05/13 07:11:52;;;;;;;30.80;19.00;;;;;;;;;;5031110;28;20239;-80
2023/05/13 07:14:20;;;;;;;28.73;19.10;;;;;;;;;;5039660;28;20206;-80
2023/05/13 07:16:47;;;;;;;32.80;21.50;;;;;;;;;;5050421;28;20203;-81
2023/05/13 07:19:14;;;;;;;30.33;20.37;;;;;;;;;;5050763;28;20231;-80
2023/05/13 07:21:41;;;;;;;31.70;21.07;;;;;;;;;;5051003;28;20737;-81
2023/05/13 07:24:10;;;;;;;30.80;21.37;;;;;;;;;;5051240;28;20282;-80
2023/05/13 07:26:37;;;;;;;33.53;21.33;;;;;;;;;;5051141;28;20199;-80
2023/05/13 07:29:05;;;;;;;36.23;21.23;;;;;;;;;;5050856;28;20200;-81
2023/05/13 07:31:33;;;;;;;30.97;19.87;;;;;;;;;;5050653;28;20200;-79
2023/05/13 07:34:00;;;;;;;27.30;19.23;;;;;;;;;;5051060;28;20206;-80
2023/05/13 07:36:27;;;;;;;27.27;18.77;;;;;;;;;;5050889;28;20206;-80
2023/05/13 07:38:54;;;;;;;25.43;17.20;;;;;;;;;;5050922;28;20231;-80
2023/05/13 07:41:23;;;;;;;28.43;17.73;;;;;;;;;;5051054;28;20226;-79
2023/05/13 07:43:50;;;;;;;25.60;17.50;;;;;;;;;;5050512;28;20279;-80
2023/05/13 07:46:17;;;;;;;26.20;18.83;;;;;;;;;;5051068;28;20199;-80
2023/05/13 07:48:45;;;;;;;28.67;20.10;;;;;;;;;;5050466;28;20323;-79
2023/05/13 07:51:12;;;;;;;32.20;20.13;;;;;;;;;;5050966;28;20206;-79
2023/05/13 07:53:39;;;;;;;28.93;19.20;;;;;;;;;;5054010;28;20287;-79
2023/05/13 07:56:06;;;;;;;28.07;19.57;;;;;;;;;;5054916;28;20231;-79
2023/05/13 07:58:36;;;;;;;26.63;19.10;;;;;;;;;;5054251;28;20602;-79
2023/05/13 08:01:04;;;;;;;27.97;18.87;;;;;;;;;;5054615;28;20204;-79
2023/05/13 08:03:31;;;;;;;25.67;18.60;;;;;;;;;;5054885;28;20196;-81
2023/05/13 08:05:58;;;;;;;26.90;18.53;;;;;;;;;;5053851;28;20292;-80
2023/05/13 08:08:25;;;;;;;27.33;19.43;;;;;;;;;;5053832;28;20295;-80
2023/05/13 08:10:52;;;;;;;31.27;21.60;;;;;;;;;;5054370;28;20271;-80
2023/05/13 08:13:20;;;;;;;32.10;21.83;;;;;;;;;;5053841;28;20206;-79
2023/05/13 08:15:50;;;;;;;36.73;22.93;;;;;;;;;;5054847;28;20195;-80
2023/05/13 08:18:17;;;;;;;35.00;22.50;;;;;;;;;;5054606;28;20231;-80
2023/05/13 08:20:45;;;;;;;33.33;21.97;;;;;;;;;;5054048;28;20291;-80
2023/05/13 08:23:12;;;;;;;36.73;22.60;;;;;;;;;;5054414;28;20231;-81
2023/05/13 08:25:39;;;;;;;35.53;22.00;;;;;;;;;;5054287;28;20232;-81
2023/05/13 08:28:06;;;;;;;28.83;21.00;;;;;;;;;;5053788;28;20202;-81
2023/05/13 08:30:33;;;;;;;31.10;20.70;;;;;;;;;;5054607;28;20219;-81
2023/05/13 08:33:02;;;;;;;27.97;20.83;;;;;;;;;;5054340;28;20227;-80
2023/05/13 08:35:29;;;;;;;31.40;21.73;;;;;;;;;;5054022;28;20624;-80
2023/05/13 08:37:56;;;;;;;32.57;22.67;;;;;;;;;;5054155;28;20664;-81
2023/05/13 08:40:24;;;;;;;28.77;22.20;;;;;;;;;;5053994;28;20219;-80
2023/05/13 08:42:51;;;;;;;33.77;22.93;;;;;;;;;;5053637;28;20203;-81
2023/05/13 08:45:20;;;;;;;31.07;21.90;;;;;;;;;;5054149;28;20200;-80
2023/05/13 08:47:51;;;;;;;30.93;21.47;;;;;;;;;;5054226;28;20302;-80
2023/05/13 08:50:20;;;;;;;29.83;21.10;;;;;;;;;;5053691;28;20253;-79
2023/05/13 08:52:47;;;;;;;25.37;19.87;;;;;;;;;;5054015;28;20198;-80
2023/05/13 08:55:14;;;;;;;27.83;20.10;;;;;;;;;;5053795;28;20302;-80
2023/05/13 08:57:41;;;;;;;27.57;19.20;;;;;;;;;;5053157;28;20314;-81
2023/05/13 09:00:09;;;;;;;26.90;19.17;;;;;;;;;;5053566;28;20295;-80
2023/05/13 09:02:36;;;;;;;26.70;20.13;;;;;;;;;;5054013;28;20199;-80
2023/05/13 09:05:06;;;;;;;31.93;21.47;;;;;;;;;;5030482;28;20275;-79
2023/05/13 09:07:35;;;;;;;27.23;20.03;;;;;;;;;;5023866;28;20201;-80
2023/05/13 09:10:02;;;;;;;32.50;21.03;;;;;;;;;;5022172;28;20193;-80
2023/05/13 09:12:46;;;;;;;26.93;20.83;;;;;;;;;;5021784;28;20197;-80
2023/05/13 09:15:14;;;;;;;28.90;21.53;;;;;;;;;;5027915;28;20681;-80
2023/05/13 09:17:42;;;;;;;29.63;20.47;;;;;;;;;;5021933;28;20340;-79
2023/05/13 09:20:10;;;;;;;29.83;21.13;;;;;;;;;;5029088;28;20234;-80
2023/05/13 09:22:42;;;;;;;32.73;23.27;;;;;;;;;;5027770;28;20282;-80
2023/05/13 09:25:12;;;;;;;28.53;20.40;;;;;;;;;;5021156;28;20197;-80
2023/05/13 09:27:40;;;;;;;27.90;20.37;;;;;;;;;;5023819;28;20206;-79
2023/05/13 09:30:08;;;;;;;29.15;19.42;;;;;;;;;;5020871;28;20288;-80
2023/05/13 09:32:35;;;;;;;25.50;18.48;;;;;;;;;;5028738;28;20283;-80
2023/05/13 09:35:09;;;;;;;25.80;17.80;;;;;;;;;;5025280;28;20663;-80
2023/05/13 09:37:37;;;;;;;25.73;17.75;;;;;;;;;;5028871;28;20192;-80
2023/05/13 09:40:06;;;;;;;20.50;16.17;;;;;;;;;;5037990;28;20200;-76
2023/05/13 09:42:33;;;;;;;22.80;16.65;;;;;;;;;;5025979;28;20232;-78
2023/05/13 09:45:06;;;;;;;22.45;17.25;;;;;;;;;;5019399;28;20207;-78
2023/05/13 09:47:33;;;;;;;25.10;17.55;;;;;;;;;;5029673;28;20208;-79
2023/05/13 09:50:02;;;;;;;23.80;17.63;;;;;;;;;;5030924;28;20315;-79
2023/05/13 09:52:30;;;;;;;21.00;15.77;;;;;;;;;;5029986;28;21215;-78
2023/05/13 09:54:57;;;;;;;25.05;17.10;;;;;;;;;;5029315;28;20570;-79
2023/05/13 09:57:27;;;;;;;21.92;15.88;;;;;;;;;;5029504;28;20201;-79
2023/05/13 09:59:57;;;;;;;21.20;15.95;;;;;;;;;;5030563;28;20602;-79
2023/05/13 10:02:25;;;;;;;20.17;15.65;;;;;;;;;;5031251;28;20653;-79
2023/05/13 10:04:53;;;;;;;20.05;15.73;;;;;;;;;;5032706;28;20679;-78
2023/05/13 10:07:23;;;;;;;20.75;14.95;;;;;;;;;;5032618;28;20207;-79
2023/05/13 10:09:51;;;;;;;20.92;14.85;;;;;;;;;;5031949;28;20204;-78
2023/05/13 10:12:20;;;;;;;19.30;14.35;;;;;;;;;;5029352;28;20223;-79
2023/05/13 10:14:50;;;;;;;19.90;15.85;;;;;;;;;;5044273;28;20269;-79
2023/05/13 10:17:18;;;;;;;21.58;15.90;;;;;;;;;;5031078;28;20704;-79
2023/05/13 10:19:46;;;;;;;22.80;16.25;;;;;;;;;;5029849;28;20323;-79
2023/05/13 10:22:14;;;;;;;21.63;16.17;;;;;;;;;;5032318;28;20298;-77
2023/05/13 10:24:42;;;;;;;19.27;14.88;;;;;;;;;;5032512;28;20291;-83
2023/05/13 10:27:12;;;;;;;21.98;15.20;;;;;;;;;;5031461;28;20295;-78
2023/05/13 10:29:39;;;;;;;18.45;14.80;;;;;;;;;;5030319;28;20200;-82
2023/05/13 10:32:08;;;;;;;20.48;14.73;;;;;;;;;;5031281;28;20189;-80
2023/05/13 10:34:36;;;;;;;18.65;13.68;;;;;;;;;;5036021;28;20206;-82
2023/05/13 10:37:10;;;;;;;18.08;13.50;;;;;;;;;;5030130;28;20673;-81
2023/05/13 10:39:52;;;;;;;18.60;12.25;;;;;;;;;;5014398;28;20255;-80
2023/05/13 10:42:41;;;;;;;16.70;12.35;;;;;;;;;;5013209;28;20660;-81
2023/05/13 10:45:08;;;;;;;17.83;13.27;;;;;;;;;;5032239;28;20204;-80
2023/05/13 10:47:37;;;;;;;16.90;12.85;;;;;;;;;;5036522;28;20571;-81
2023/05/13 10:50:22;;;;;;;15.20;11.52;;;;;;;;;;5032461;28;20326;-81
2023/05/13 10:52:49;;;;;;;13.90;11.18;;;;;;;;;;5021363;28;20198;-81
2023/05/13 10:55:19;;;;;;;15.32;11.90;;;;;;;;;;5051351;28;20601;-82
2023/05/13 10:58:09;;;;;;;16.98;12.13;;;;;;;;;;5047535;28;20220;-80
2023/05/13 11:00:37;;;;;;;17.42;11.57;;;;;;;;;;5020338;28;20255;-81
2023/05/13 11:03:13;;;;;;;16.80;13.02;;;;;;;;;;5029787;28;20273;-79
2023/05/13 11:05:45;;;;;;;16.80;11.88;;;;;;;;;;5024606;28;20239;-79
2023/05/13 11:08:13;;;;;;;17.23;13.20;;;;;;;;;;5024124;28;20586;-78
2023/05/13 11:10:41;;;;;;;18.00;12.63;;;;;;;;;;5031398;28;20286;-78
2023/05/13 11:13:09;;;;;;;20.23;14.60;;;;;;;;;;5031304;28;20653;-79
2023/05/13 11:15:46;;;;;;;18.60;14.43;;;;;;;;;;5050324;28;20227;-78
2023/05/13 11:18:15;;;;;;;18.67;13.55;;;;;;;;;;5051025;28;20630;-82
2023/05/13 11:20:45;;;;;;;15.65;13.95;;;;;;;;;;5051484;28;20290;-78
2023/05/13 11:23:17;;;;;;;18.27;13.90;;;;;;;;;;5050983;28;20283;-80
2023/05/13 11:25:44;;;;;;;18.63;15.43;;;;;;;;;;5038274;28;20247;-80
2023/05/13 11:28:15;;;;;;;18.67;14.00;;;;;;;;;;5030101;28;20738;-82
2023/05/13 11:30:53;;;;;;;25.02;19.58;;;;;;;;;;5018317;28;20228;-80
2023/05/13 11:33:21;;;;;;;20.70;15.13;;;;;;;;;;5011538;28;20292;-82
2023/05/13 11:35:55;;;;;;;17.33;13.43;;;;;;;;;;5011474;28;20201;-82
2023/05/13 11:38:25;;;;;;;16.25;13.40;;;;;;;;;;5011800;28;20201;-79
2023/05/13 11:40:56;;;;;;;14.88;13.20;;;;;;;;;;5011234;28;20232;-79
2023/05/13 11:43:24;;;;;;;17.38;13.90;;;;;;;;;;5011422;28;20289;-79
2023/05/13 11:45:52;;;;;;;18.10;15.38;;;;;;;;;;5011112;28;20673;-81
2023/05/13 11:48:20;;;;;;;16.90;14.35;;;;;;;;;;5011345;28;20208;-82
2023/05/13 11:50:50;;;;;;;15.65;12.68;;;;;;;;;;5016502;28;20197;-82
2023/05/13 11:53:21;;;;;;;17.20;12.98;;;;;;;;;;5024990;28;20212;-82
2023/05/13 11:55:48;;;;;;;18.13;13.32;;;;;;;;;;5018029;28;20207;-81
2023/05/13 11:58:15;;;;;;;16.27;13.00;;;;;;;;;;5022925;28;20291;-80
2023/05/13 12:00:43;;;;;;;18.52;13.85;;;;;;;;;;5031251;28;20275;-82
2023/05/13 12:03:11;;;;;;;17.55;13.75;;;;;;;;;;5030867;28;20215;-81
2023/05/13 12:05:39;;;;;;;17.35;13.68;;;;;;;;;;5024298;28;20295;-82
2023/05/13 12:08:09;;;;;;;15.18;12.73;;;;;;;;;;5013930;28;20283;-82
2023/05/13 12:10:36;;;;;;;14.50;12.82;;;;;;;;;;5010783;28;20212;-82
2023/05/13 12:13:04;;;;;;;16.58;13.23;;;;;;;;;;5011180;28;20224;-82
2023/05/13 12:15:31;;;;;;;17.55;14.25;;;;;;;;;;5045580;28;20243;-81
2023/05/13 12:17:58;;;;;;;17.13;12.65;;;;;;;;;;5016403;28;20295;-80
2023/05/13 12:20:26;;;;;;;17.73;13.68;;;;;;;;;;5030474;28;20228;-81
2023/05/13 12:22:55;;;;;;;16.27;13.95;;;;;;;;;;5030934;28;20291;-81
2023/05/13 12:25:46;;;;;;;15.57;13.45;;;;;;;;;;5030852;28;20208;-82
2023/05/13 12:28:16;;;;;;;13.57;12.18;;;;;;;;;;5030579;28;20208;-81
2023/05/13 12:30:44;;;;;;;15.50;12.40;;;;;;;;;;5030563;28;20593;-81
2023/05/13 12:33:15;;;;;;;17.95;13.07;;;;;;;;;;5030602;28;20684;-80
2023/05/13 12:35:42;;;;;;;17.00;13.98;;;;;;;;;;5030063;28;20295;-81
2023/05/13 12:38:14;;;;;;;15.95;13.35;;;;;;;;;;5030843;28;20701;-81
2023/05/13 12:40:41;;;;;;;16.15;13.25;;;;;;;;;;5034083;28;20651;-80
2023/05/13 12:43:11;;;;;;;15.60;13.35;;;;;;;;;;5034484;28;20196;-82
2023/05/13 12:45:39;;;;;;;19.30;13.95;;;;;;;;;;5034040;28;20207;-81
2023/05/13 12:48:07;;;;;;;17.30;14.43;;;;;;;;;;5034226;28;20193;-80
2023/05/13 12:50:34;;;;;;;17.85;14.43;;;;;;;;;;5033706;28;20328;-81
2023/05/13 12:53:01;;;;;;;17.42;13.73;;;;;;;;;;5031708;28;20673;-80
2023/05/13 12:55:28;;;;;;;16.10;13.15;;;;;;;;;;5032926;28;20211;-83
2023/05/13 12:57:56;;;;;;;18.13;15.07;;;;;;;;;;5032888;28;20232;-82
2023/05/13 13:00:25;;;;;;;15.38;12.95;;;;;;;;;;5033459;28;20216;-82
2023/05/13 13:02:53;;;;;;;16.70;13.85;;;;;;;;;;5033189;28;20204;-82
2023/05/13 13:05:20;;;;;;;16.45;12.00;;;;;;;;;;5033303;28;20196;-82
2023/05/13 13:07:48;;;;;;;16.50;11.95;;;;;;;;;;5033606;28;20197;-83
2023/05/13 13:10:15;;;;;;;15.73;13.05;;;;;;;;;;5033598;28;20219;-83
2023/05/13 13:12:42;;;;;;;13.45;11.82;;;;;;;;;;5033462;28;20279;-82
2023/05/13 13:15:10;;;;;;;14.75;10.65;;;;;;;;;;5048729;28;20294;-83
2023/05/13 13:17:39;;;;;;;14.00;10.35;;;;;;;;;;5053197;28;20614;-82
2023/05/13 13:20:07;;;;;;;17.08;12.43;;;;;;;;;;5053383;28;20318;-82
2023/05/13 13:22:35;;;;;;;16.52;12.50;;;;;;;;;;5053297;28;20192;-83
2023/05/13 13:25:03;;;;;;;14.13;11.52;;;;;;;;;;5053397;28;20215;-82
2023/05/13 13:27:30;;;;;;;13.32;10.68;;;;;;;;;;5053250;28;20753;-82
2023/05/13 13:29:57;;;;;;;12.23;10.88;;;;;;;;;;5049296;28;20203;-84
2023/05/13 13:32:24;;;;;;;11.80;10.55;;;;;;;;;;5038825;28;20291;-82
2023/05/13 13:34:53;;;;;;;14.68;11.20;;;;;;;;;;5028140;28;20734;-82
2023/05/13 13:37:20;;;;;;;16.15;12.18;;;;;;;;;;5027873;28;20584;-82
2023/05/13 13:39:47;;;;;;;15.80;12.07;;;;;;;;;;5031394;28;20331;-81
2023/05/13 13:42:15;;;;;;;16.10;12.55;;;;;;;;;;5031947;28;20296;-81
2023/05/13 13:44:42;;;;;;;16.38;11.57;;;;;;;;;;5032504;28;20200;-82
2023/05/13 13:47:10;;;;;;;18.75;12.38;;;;;;;;;;5033798;28;20643;-82
2023/05/13 13:49:37;;;;;;;14.80;10.85;;;;;;;;;;5020670;28;20345;-82
2023/05/13 13:52:06;;;;;;;16.88;13.00;;;;;;;;;;5021783;28;20250;-82
2023/05/13 13:54:34;;;;;;;16.92;12.07;;;;;;;;;;5023332;28;21027;-82
2023/05/13 13:57:01;;;;;;;15.70;12.32;;;;;;;;;;5023103;28;20200;-81
2023/05/13 13:59:28;;;;;;;14.20;11.68;;;;;;;;;;5021337;28;20230;-82
2023/05/13 14:01:56;;;;;;;15.80;11.90;;;;;;;;;;5021344;28;20197;-82
2023/05/13 14:04:26;;;;;;;17.58;12.30;;;;;;;;;;5022282;28;20627;-83
2023/05/13 14:06:54;;;;;;;16.52;11.57;;;;;;;;;;5032519;28;20604;-81
2023/05/13 14:09:22;;;;;;;16.48;12.10;;;;;;;;;;5026320;28;20204;-82
2023/05/13 14:11:50;;;;;;;17.30;13.02;;;;;;;;;;5012440;28;20212;-82
2023/05/13 14:14:17;;;;;;;19.83;13.70;;;;;;;;;;5029158;28;20294;-82
2023/05/13 14:16:44;;;;;;;15.68;12.73;;;;;;;;;;5051935;28;20624;-82
2023/05/13 14:19:12;;;;;;;16.05;12.32;;;;;;;;;;5045140;28;20228;-83
2023/05/13 14:21:39;;;;;;;15.50;12.68;;;;;;;;;;5032611;28;20767;-82